createdAt,value
2019-04-06T00:02:23.115Z,76.21
2019-04-06T00:04:52.233Z,76.36
2019-04-06T00:07:24.538Z,76.00
2019-04-06T00:10:08.688Z,75.95
2019-04-06T00:12:37.786Z,76.01
2019-04-06T00:18:04.646Z,76.33
2019-04-06T00:20:39.572Z,76.39
2019-04-06T00:23:10.322Z,76.58
2019-04-06T00:25:44.249Z,76.73
2019-04-06T00:28:13.356Z,76.57
2019-04-06T00:31:07.664Z,76.60
2019-04-06T00:33:54.599Z,76.45
2019-04-06T00:39:24.397Z,76.76
2019-04-06T00:41:53.462Z,76.80
2019-04-06T00:44:23.883Z,76.87
2019-04-06T00:46:54.072Z,76.92
2019-04-06T00:49:23.409Z,76.98
2019-04-06T00:51:52.820Z,76.89
2019-04-06T00:54:22.636Z,77.02
2019-04-06T00:56:51.736Z,77.19
2019-04-06T01:02:07.144Z,76.91
2019-04-06T01:04:36.264Z,76.85
2019-04-06T01:07:55.080Z,76.90
2019-04-06T01:10:29.244Z,76.83
2019-04-06T01:12:12.874Z,76.67
2019-04-06T01:14:54.209Z,76.66
2019-04-06T01:20:10.692Z,76.59
2019-04-06T01:22:39.800Z,76.58
2019-04-06T01:25:16.896Z,76.54
2019-04-06T01:27:45.980Z,76.64
2019-04-06T01:30:51.201Z,76.51
2019-04-06T01:33:23.025Z,76.32
2019-04-06T01:35:55.016Z,76.22
2019-04-06T01:38:25.225Z,76.58
2019-04-06T01:41:03.193Z,76.27
2019-04-06T01:43:42.799Z,76.24
2019-04-06T01:46:11.904Z,76.28
2019-04-06T01:48:43.888Z,76.08
2019-04-06T01:51:15.484Z,76.16
2019-04-06T01:53:45.185Z,76.16
2019-04-06T01:56:18.638Z,76.14
2019-04-06T01:58:46.541Z,76.00
2019-04-06T02:04:12.693Z,75.89
2019-04-06T02:06:44.101Z,75.66
2019-04-06T02:09:13.172Z,75.80
2019-04-06T02:14:52.126Z,75.88
2019-04-06T02:15:01.296Z,75.83
2019-04-06T02:16:52.841Z,75.72
2019-04-06T02:19:33.404Z,75.50
2019-04-06T02:22:00.034Z,75.49
2019-04-06T02:24:31.478Z,75.06
2019-04-06T02:27:00.569Z,75.28
2019-04-06T02:29:40.251Z,75.46
2019-04-06T02:32:39.622Z,75.39
2019-04-06T02:35:25.287Z,75.76
2019-04-06T02:38:01.175Z,75.66
2019-04-06T02:40:44.455Z,75.49
2019-04-06T02:43:30.801Z,75.62
2019-04-06T02:45:59.907Z,75.51
2019-04-06T02:48:32.251Z,75.59
2019-04-06T02:51:01.324Z,76.00
2019-04-06T02:53:30.419Z,76.01
2019-04-06T02:56:02.912Z,76.05
2019-04-06T02:58:31.971Z,75.88
2019-04-06T03:01:04.253Z,76.04
2019-04-06T03:03:36.699Z,76.23
2019-04-06T03:06:17.955Z,76.25
2019-04-06T03:09:11.642Z,76.58
2019-04-06T03:11:23.964Z,76.46
2019-04-06T03:13:53.561Z,76.55
2019-04-06T03:16:36.488Z,76.42
2019-04-06T03:19:05.599Z,76.37
2019-04-06T03:21:36.582Z,76.47
2019-04-06T03:24:10.850Z,76.90
2019-04-06T03:26:39.994Z,76.76
2019-04-06T03:29:23.974Z,76.55
2019-04-06T03:32:08.163Z,76.51
2019-04-06T03:34:37.248Z,76.12
2019-04-06T03:37:07.799Z,76.24
2019-04-06T03:39:36.869Z,77.19
2019-04-06T03:42:10.624Z,77.47
2019-04-06T03:44:43.121Z,77.03
2019-04-06T03:47:15.953Z,76.24
2019-04-06T03:49:47.539Z,76.23
2019-04-06T03:52:17.770Z,76.01
2019-04-06T03:54:47.324Z,75.90
2019-04-06T03:57:17.863Z,76.50
2019-04-06T03:59:53.995Z,76.47
2019-04-06T04:02:23.459Z,77.78
2019-04-06T04:04:52.916Z,77.10
2019-04-06T04:07:24.846Z,76.49
2019-04-06T04:09:55.481Z,76.24
2019-04-06T04:12:26.009Z,76.23
2019-04-06T04:14:55.088Z,77.00
2019-04-06T04:17:27.420Z,76.49
2019-04-06T04:19:59.634Z,76.71
2019-04-06T04:22:30.860Z,78.53
2019-04-06T04:25:00.262Z,77.74
2019-04-06T04:28:04.646Z,77.59
2019-04-06T04:30:34.690Z,79.83
2019-04-06T04:33:08.773Z,79.45
2019-04-06T04:35:39.646Z,82.12
2019-04-06T04:38:08.747Z,84.29
2019-04-06T04:40:38.272Z,82.68
2019-04-06T04:43:09.130Z,81.47
2019-04-06T04:45:38.201Z,80.69
2019-04-06T04:48:09.371Z,81.11
2019-04-06T04:50:40.268Z,81.34
2019-04-06T04:53:09.343Z,82.06
2019-04-06T04:55:38.897Z,82.24
2019-04-06T04:58:09.831Z,83.80
2019-04-06T05:00:38.892Z,82.15
2019-04-06T05:03:09.715Z,83.02
2019-04-06T05:05:40.569Z,82.58
2019-04-06T05:08:09.647Z,86.25
2019-04-06T05:10:40.462Z,84.51
2019-04-06T05:13:09.983Z,82.71
2019-04-06T05:16:09.341Z,83.36
2019-04-06T05:18:39.891Z,83.04
2019-04-06T05:21:08.965Z,82.93
2019-04-06T05:23:38.061Z,82.74
2019-04-06T05:26:09.326Z,82.41
2019-04-06T05:28:38.848Z,81.92
2019-04-06T05:31:07.920Z,81.18
2019-04-06T05:33:37.732Z,80.46
2019-04-06T05:36:06.907Z,80.60
2019-04-06T05:38:38.182Z,80.43
2019-04-06T05:41:09.684Z,79.58
2019-04-06T05:43:38.957Z,79.07
2019-04-06T05:46:08.842Z,79.29
2019-04-06T05:48:41.967Z,78.66
2019-04-06T05:51:12.512Z,78.08
2019-04-06T05:53:43.112Z,78.19
2019-04-06T05:56:12.451Z,77.54
2019-04-06T05:58:44.345Z,77.54
2019-04-06T06:01:14.050Z,77.30
2019-04-06T06:03:43.286Z,76.57
2019-04-06T06:06:13.536Z,76.11
2019-04-06T06:08:42.625Z,76.01
2019-04-06T06:11:14.795Z,75.83
2019-04-06T06:13:45.044Z,75.57
2019-04-06T06:16:16.325Z,76.15
2019-04-06T06:18:45.644Z,75.21
2019-04-06T06:21:17.203Z,74.62
2019-04-06T06:23:48.693Z,74.56
2019-04-06T06:26:17.973Z,74.30
2019-04-06T06:28:47.139Z,74.42
2019-04-06T06:31:16.298Z,74.62
2019-04-06T06:33:45.808Z,74.17
2019-04-06T06:36:17.103Z,73.51
2019-04-06T06:38:48.206Z,72.83
2019-04-06T06:41:17.777Z,73.21
2019-04-06T06:43:49.656Z,72.66
2019-04-06T06:46:21.577Z,72.21
2019-04-06T06:48:53.741Z,71.73
2019-04-06T06:51:26.607Z,71.27
2019-04-06T06:53:56.927Z,70.39
2019-04-06T06:56:26.637Z,69.87
2019-04-06T06:58:55.772Z,69.53
2019-04-06T07:01:24.848Z,68.83
2019-04-06T07:03:53.905Z,68.82
2019-04-06T07:06:25.764Z,67.93
2019-04-06T07:08:56.045Z,67.67
2019-04-06T07:11:25.122Z,67.14
2019-04-06T07:13:57.111Z,68.77
2019-04-06T07:16:27.886Z,67.45
2019-04-06T07:18:58.476Z,67.89
2019-04-06T07:21:27.596Z,67.58
2019-04-06T07:23:59.606Z,67.15
2019-04-06T07:26:30.706Z,67.02
2019-04-06T07:28:59.817Z,66.61
2019-04-06T07:31:29.300Z,67.54
2019-04-06T07:33:58.847Z,67.11
2019-04-06T07:36:27.941Z,67.58
2019-04-06T07:39:12.565Z,68.08
2019-04-06T07:41:42.940Z,67.04
2019-04-06T07:44:11.977Z,66.92
2019-04-06T07:46:41.061Z,66.94
2019-04-06T07:49:21.962Z,66.90
2019-04-06T07:51:59.382Z,66.60
2019-04-06T07:54:34.129Z,67.37
2019-04-06T07:57:04.446Z,67.86
2019-04-06T07:59:33.725Z,68.66
2019-04-06T08:02:07.101Z,68.58
2019-04-06T08:04:36.227Z,68.28
2019-04-06T08:07:08.393Z,67.38
2019-04-06T08:09:39.085Z,67.36
2019-04-06T08:12:08.163Z,68.25
2019-04-06T08:14:39.303Z,68.35
2019-04-06T08:17:10.285Z,68.61
2019-04-06T08:19:39.325Z,68.62
2019-04-06T08:22:09.516Z,67.94
2019-04-06T08:24:39.163Z,67.06
2019-04-06T08:27:08.187Z,68.86
2019-04-06T08:29:40.221Z,69.70
2019-04-06T08:32:11.495Z,69.54
2019-04-06T08:34:40.582Z,69.25
2019-04-06T08:37:09.736Z,68.11
2019-04-06T08:39:39.110Z,68.77
2019-04-06T08:42:08.312Z,70.69
2019-04-06T08:44:37.760Z,69.14
2019-04-06T08:47:07.112Z,68.12
2019-04-06T08:49:38.918Z,67.32
2019-04-06T08:52:11.767Z,66.39
2019-04-06T08:54:44.016Z,65.92
2019-04-06T08:57:16.625Z,63.76
2019-04-06T08:59:45.918Z,63.35
2019-04-06T09:02:15.021Z,62.28
2019-04-06T09:04:46.472Z,61.63
2019-04-06T09:07:15.559Z,59.73
2019-04-06T09:09:44.699Z,59.50
2019-04-06T09:12:14.334Z,59.34
2019-04-06T09:14:43.600Z,58.71
2019-04-06T09:17:12.963Z,58.99
2019-04-06T09:19:42.346Z,58.85
2019-04-06T09:22:11.607Z,59.29
2019-04-06T09:24:42.199Z,59.47
2019-04-06T09:27:11.731Z,59.06
2019-04-06T09:29:44.679Z,58.60
2019-04-06T09:32:16.944Z,57.90
2019-04-06T09:34:47.082Z,58.47
2019-04-06T09:37:16.206Z,56.84
2019-04-06T09:39:45.311Z,55.98
2019-04-06T09:42:17.613Z,55.95
2019-04-06T09:44:53.072Z,55.32
2019-04-06T09:47:28.963Z,52.76
2019-04-06T09:50:38.668Z,53.44
2019-04-06T09:53:26.649Z,52.80
2019-04-06T09:56:16.025Z,51.98
2019-04-06T09:59:06.828Z,51.30
2019-04-06T10:02:01.329Z,51.28
2019-04-06T10:04:49.329Z,50.39
2019-04-06T10:07:27.564Z,50.63
2019-04-06T10:10:30.713Z,50.42
2019-04-06T10:13:31.093Z,49.47
2019-04-06T10:16:06.552Z,48.49
2019-04-06T10:18:57.980Z,48.08
2019-04-06T10:21:47.371Z,47.40
2019-04-06T10:24:44.767Z,46.80
2019-04-06T10:27:29.518Z,45.82
2019-04-06T10:30:23.755Z,45.09
2019-04-06T10:32:59.078Z,44.82
2019-04-06T10:35:47.501Z,45.04
2019-04-06T10:38:53.716Z,43.90
2019-04-06T10:41:50.394Z,43.63
2019-04-06T10:44:36.769Z,43.90
2019-04-06T10:47:27.272Z,43.03
2019-04-06T10:50:15.285Z,41.93
2019-04-06T10:52:53.712Z,41.65
2019-04-06T10:55:54.024Z,40.86
2019-04-06T10:58:44.062Z,40.32
2019-04-06T11:01:25.017Z,40.47
2019-04-06T11:04:05.787Z,39.92
2019-04-06T11:06:44.459Z,39.72
2019-04-06T11:09:31.606Z,39.77
2019-04-06T11:12:31.285Z,39.13
2019-04-06T11:15:18.385Z,38.34
2019-04-06T11:18:21.585Z,37.78
2019-04-06T11:21:08.383Z,38.41
2019-04-06T11:24:05.177Z,38.25
2019-04-06T11:26:40.216Z,38.12
2019-04-06T11:29:14.891Z,37.82
2019-04-06T11:32:01.374Z,37.78
2019-04-06T11:34:48.168Z,38.04
2019-04-06T11:37:28.819Z,37.86
2019-04-06T11:40:23.443Z,38.59
2019-04-06T11:43:15.311Z,38.61
2019-04-06T11:46:15.370Z,39.65
2019-04-06T11:49:12.458Z,40.00
2019-04-06T11:51:59.374Z,40.11
2019-04-06T11:54:41.908Z,40.12
2019-04-06T11:57:32.975Z,40.24
2019-04-06T12:00:09.503Z,40.98
2019-04-06T12:03:00.890Z,40.70
2019-04-06T12:05:38.615Z,40.82
2019-04-06T12:08:15.939Z,42.10
2019-04-06T12:11:16.261Z,41.70
2019-04-06T12:14:23.235Z,41.33
2019-04-06T12:17:15.872Z,41.33
2019-04-06T12:20:07.013Z,42.13
2019-04-06T12:22:51.347Z,42.50
2019-04-06T12:25:34.265Z,42.05
2019-04-06T12:28:26.777Z,42.11
2019-04-06T12:31:11.962Z,41.86
2019-04-06T12:34:07.508Z,41.11
2019-04-06T12:36:42.822Z,41.10
2019-04-06T12:39:25.342Z,40.77
2019-04-06T12:42:25.992Z,40.42
2019-04-06T12:45:03.743Z,40.74
2019-04-06T12:47:49.975Z,40.41
2019-04-06T12:50:35.157Z,40.49
2019-04-06T12:53:22.011Z,40.10
2019-04-06T12:56:08.720Z,40.92
2019-04-06T12:58:46.614Z,40.79
2019-04-06T13:01:24.287Z,40.89
2019-04-06T13:04:30.835Z,40.92
2019-04-06T13:07:17.582Z,41.02
2019-04-06T13:10:06.143Z,41.02
2019-04-06T13:13:02.392Z,41.71
2019-04-06T13:16:00.342Z,41.85
2019-04-06T13:18:41.572Z,42.46
2019-04-06T13:21:29.040Z,42.80
2019-04-06T13:24:15.572Z,43.20
2019-04-06T13:27:02.803Z,43.40
2019-04-06T13:29:49.173Z,43.76
2019-04-06T13:32:33.138Z,45.17
2019-04-06T13:35:16.374Z,45.27
2019-04-06T13:38:10.987Z,45.81
2019-04-06T13:40:56.343Z,46.07
2019-04-06T13:43:53.216Z,45.83
2019-04-06T13:46:47.043Z,45.69
2019-04-06T13:49:34.272Z,45.42
2019-04-06T13:52:23.908Z,45.43
2019-04-06T13:55:12.338Z,45.00
2019-04-06T13:58:05.873Z,43.91
2019-04-06T14:01:16.925Z,44.67
2019-04-06T14:04:00.526Z,44.03
2019-04-06T14:06:54.815Z,41.96
2019-04-06T14:09:52.080Z,41.63
2019-04-06T14:12:58.387Z,40.30
2019-04-06T14:15:42.684Z,39.83
2019-04-06T14:18:29.238Z,39.98
2019-04-06T14:21:26.667Z,38.59
2019-04-06T14:24:24.482Z,36.33
2019-04-06T14:27:16.181Z,34.01
2019-04-06T14:30:02.654Z,32.26
2019-04-06T14:32:54.089Z,31.39
2019-04-06T14:35:32.386Z,31.05
2019-04-06T14:38:20.383Z,30.96
2019-04-06T14:41:04.677Z,31.90
2019-04-06T14:43:53.141Z,32.63
2019-04-06T14:46:34.696Z,33.47
2019-04-06T14:49:29.592Z,34.35
2019-04-06T14:52:09.769Z,34.71
2019-04-06T14:54:44.033Z,32.68
2019-04-06T14:57:38.796Z,30.86
2019-04-06T15:00:19.834Z,29.97
2019-04-06T15:03:06.240Z,27.94
2019-04-06T15:05:42.969Z,26.42
2019-04-06T15:08:43.180Z,25.38
2019-04-06T15:11:49.388Z,24.66
2019-04-06T15:14:32.744Z,23.85
2019-04-06T15:17:29.561Z,23.39
2019-04-06T15:20:18.182Z,23.43
2019-04-06T15:23:14.816Z,23.56
2019-04-06T15:26:07.847Z,23.47
2019-04-06T15:28:44.090Z,23.36
2019-04-06T15:31:51.775Z,23.31
2019-04-06T15:34:27.241Z,23.92
2019-04-06T15:37:13.188Z,23.81
2019-04-06T15:40:01.324Z,23.71
2019-04-06T15:42:52.673Z,24.21
2019-04-06T15:45:53.104Z,24.96
2019-04-06T15:48:53.450Z,25.09
2019-04-06T15:51:45.550Z,24.68
2019-04-06T15:54:38.088Z,25.20
2019-04-06T15:57:18.079Z,24.77
2019-04-06T16:00:05.560Z,25.40
2019-04-06T16:02:50.468Z,25.77
2019-04-06T16:05:40.933Z,26.63
2019-04-06T16:08:26.037Z,26.87
2019-04-06T16:11:29.238Z,27.44
2019-04-06T16:14:15.904Z,27.93
2019-04-06T16:16:52.671Z,28.79
2019-04-06T16:19:31.995Z,29.23
2019-04-06T16:22:32.524Z,29.46
2019-04-06T16:25:06.887Z,30.41
2019-04-06T16:27:55.340Z,30.79
2019-04-06T16:30:47.415Z,31.46
2019-04-06T16:33:25.742Z,32.41
2019-04-06T16:36:03.489Z,33.13
2019-04-06T16:38:52.450Z,33.49
2019-04-06T16:41:43.342Z,33.74
2019-04-06T16:44:34.498Z,34.23
2019-04-06T16:47:20.835Z,34.98
2019-04-06T16:50:08.161Z,35.56
2019-04-06T16:52:55.781Z,36.00
2019-04-06T16:55:40.147Z,36.40
2019-04-06T16:58:34.138Z,37.01
2019-04-06T17:01:21.681Z,37.91
2019-04-06T17:04:21.413Z,38.40
2019-04-06T17:07:17.862Z,39.04
2019-04-06T17:10:05.891Z,39.61
2019-04-06T17:13:00.600Z,40.52
2019-04-06T17:15:49.457Z,41.06
2019-04-06T17:18:37.674Z,41.90
2019-04-06T17:21:18.423Z,41.94
2019-04-06T17:24:10.195Z,42.48
2019-04-06T17:26:57.102Z,42.63
2019-04-06T17:30:00.756Z,43.24
2019-04-06T17:32:38.111Z,43.86
2019-04-06T17:35:26.647Z,44.31
2019-04-06T17:38:19.952Z,44.28
2019-04-06T17:41:23.846Z,44.70
2019-04-06T17:44:08.100Z,44.48
2019-04-06T17:47:12.106Z,44.72
2019-04-06T17:49:56.744Z,45.27
2019-04-06T17:53:00.047Z,45.95
2019-04-06T17:55:53.687Z,46.22
2019-04-06T17:58:39.779Z,46.40
2019-04-06T18:01:16.585Z,46.39
2019-04-06T18:04:13.836Z,46.37
2019-04-06T18:06:53.234Z,46.75
2019-04-06T18:09:58.402Z,47.39
2019-04-06T18:12:45.941Z,47.85
2019-04-06T18:15:15.452Z,47.73
2019-04-06T18:17:44.570Z,48.20
2019-04-06T18:20:15.158Z,48.21
2019-04-06T18:22:44.942Z,48.05
2019-04-06T18:25:15.729Z,48.20
2019-04-06T18:27:46.091Z,48.49
2019-04-06T18:30:15.766Z,48.45
2019-04-06T18:33:00.767Z,48.69
2019-04-06T18:35:24.626Z,48.90
2019-04-06T18:37:59.671Z,49.37
2019-04-06T18:40:29.521Z,49.46
2019-04-06T18:42:58.924Z,49.28
2019-04-06T18:45:31.325Z,50.23
2019-04-06T18:48:00.921Z,49.95
2019-04-06T18:50:36.071Z,49.81
2019-04-06T18:53:03.626Z,49.94
2019-04-06T18:55:37.927Z,50.08
2019-04-06T18:58:12.699Z,50.32
2019-04-06T19:00:43.623Z,50.40
2019-04-06T19:03:16.733Z,50.42
2019-04-06T19:05:46.261Z,50.30
2019-04-06T19:08:16.838Z,50.34
2019-04-06T19:10:47.688Z,50.31
2019-04-06T19:13:16.823Z,50.59
2019-04-06T19:15:46.864Z,50.77
2019-04-06T19:18:19.234Z,51.08
2019-04-06T19:20:53.783Z,51.43
2019-04-06T19:23:24.124Z,51.08
2019-04-06T19:25:55.670Z,51.04
2019-04-06T19:28:25.069Z,51.17
2019-04-06T19:31:00.206Z,51.13
2019-04-06T19:33:29.441Z,51.56
2019-04-06T19:35:58.802Z,51.46
2019-04-06T19:38:28.228Z,51.39
2019-04-06T19:41:00.935Z,51.60
2019-04-06T19:43:30.184Z,51.57
2019-04-06T19:48:23.860Z,51.58
2019-04-06T19:50:53.247Z,51.93
2019-04-06T19:53:22.905Z,51.93
2019-04-06T19:55:52.092Z,52.12
2019-04-06T19:58:23.686Z,52.11
2019-04-06T20:00:54.204Z,52.25
2019-04-06T20:03:34.066Z,52.42
2019-04-06T20:05:54.873Z,52.40
2019-04-06T20:08:25.420Z,52.59
2019-04-06T20:10:55.388Z,52.71
2019-04-06T20:13:28.597Z,52.91
2019-04-06T20:15:57.744Z,52.81
2019-04-06T20:18:26.869Z,52.86
2019-04-06T20:20:56.472Z,52.72
2019-04-06T20:23:27.009Z,52.88
2019-04-06T20:25:56.583Z,52.96
2019-04-06T20:28:25.764Z,53.08
2019-04-06T20:30:55.764Z,53.09
2019-04-06T20:33:24.916Z,53.08
2019-04-06T20:35:54.492Z,53.20
2019-04-06T20:38:24.650Z,53.23
2019-04-06T20:40:53.885Z,53.31
2019-04-06T20:43:22.972Z,53.40
2019-04-06T20:45:52.585Z,53.38
2019-04-06T20:48:21.904Z,53.44
2019-04-06T20:50:50.985Z,53.56
2019-04-06T20:53:22.697Z,53.45
2019-04-06T20:55:51.976Z,53.38
2019-04-06T20:58:21.073Z,53.29
2019-04-06T21:00:50.599Z,53.25
2019-04-06T21:03:20.734Z,53.27
2019-04-06T21:05:49.841Z,53.22
2019-04-06T21:08:21.129Z,53.50
2019-04-06T21:10:50.225Z,53.33
2019-04-06T21:13:20.080Z,53.57
2019-04-06T21:15:49.899Z,53.59
2019-04-06T21:18:18.979Z,53.84
2019-04-06T21:20:48.127Z,53.76
2019-04-06T21:23:18.414Z,53.57
2019-04-06T21:25:47.833Z,53.50
2019-04-06T21:28:18.209Z,53.39
2019-04-06T21:30:47.929Z,53.75
2019-04-06T21:33:17.136Z,53.80
2019-04-06T21:35:47.504Z,54.27
2019-04-06T21:38:17.116Z,54.84
2019-04-06T21:40:46.699Z,54.75
2019-04-06T21:43:15.858Z,54.71
2019-04-06T21:45:45.805Z,54.70
2019-04-06T21:48:14.930Z,54.74
2019-04-06T21:50:44.031Z,54.81
2019-04-06T21:53:13.737Z,54.79
2019-04-06T21:55:43.491Z,55.14
2019-04-06T21:58:13.043Z,55.34
2019-04-06T22:00:50.461Z,55.06
2019-04-06T22:03:19.983Z,55.35
2019-04-06T22:05:50.488Z,55.28
2019-04-06T22:08:20.424Z,55.55
2019-04-06T22:10:50.031Z,55.75
2019-04-06T22:13:19.537Z,55.91
2019-04-06T22:15:49.195Z,55.76
2019-04-06T22:18:18.269Z,55.87
2019-04-06T22:20:47.344Z,55.83
2019-04-06T22:23:16.820Z,56.08
2019-04-06T22:25:45.983Z,56.23
2019-04-06T22:28:15.307Z,56.41
2019-04-06T22:30:45.025Z,56.56
2019-04-06T22:33:14.065Z,56.55
2019-04-06T22:35:43.273Z,56.78
2019-04-06T22:38:12.848Z,57.01
2019-04-06T22:40:41.940Z,57.11
2019-04-06T22:43:10.963Z,57.32
2019-04-06T22:45:40.611Z,57.52
2019-04-06T22:48:09.608Z,57.65
2019-04-06T22:50:39.248Z,57.69
2019-04-06T22:53:08.803Z,57.89
2019-04-06T22:55:38.050Z,58.11
2019-04-06T22:58:07.093Z,58.25
2019-04-06T23:00:44.283Z,58.46
2019-04-06T23:03:30.802Z,58.54
2019-04-06T23:06:04.318Z,58.65
2019-04-06T23:08:33.864Z,58.63
2019-04-06T23:11:03.508Z,58.73
2019-04-06T23:13:32.592Z,58.71
2019-04-06T23:16:05.858Z,58.82
2019-04-06T23:18:34.892Z,58.68
2019-04-06T23:21:04.080Z,58.80
2019-04-06T23:23:34.147Z,58.82
2019-04-06T23:26:04.314Z,58.91
2019-04-06T23:28:33.396Z,58.98
2019-04-06T23:31:02.761Z,59.13
2019-04-06T23:33:31.809Z,59.82
2019-04-06T23:36:01.164Z,61.12
2019-04-06T23:38:30.584Z,60.65
2019-04-06T23:41:00.239Z,60.61
2019-04-06T23:43:29.594Z,61.66
2019-04-06T23:45:59.119Z,61.01
2019-04-06T23:48:28.209Z,60.83
2019-04-06T23:50:57.440Z,60.65
2019-04-06T23:53:26.845Z,60.54
2019-04-06T23:55:55.899Z,60.81
2019-04-06T23:58:25.005Z,60.85
